sensor_id;sensor_type;location;lat;lon;timestamp;P1;durP1;ratioP1;P2;durP2;ratioP2
23496;SDS011;11925;48.122;11.560;2024-03-07T00:00:08;6.28;;;4.97;;
23496;SDS011;11925;48.122;11.560;2024-03-07T00:02:45;7.55;;;5.65;;
23496;SDS011;11925;48.122;11.560;2024-03-07T00:05:15;7.18;;;5.30;;
23496;SDS011;11925;48.122;11.560;2024-03-07T00:07:44;8.20;;;5.60;;
23496;SDS011;11925;48.122;11.560;2024-03-07T00:10:13;8.52;;;5.80;;
23496;SDS011;11925;48.122;11.560;2024-03-07T00:12:43;8.82;;;5.93;;
23496;SDS011;11925;48.122;11.560;2024-03-07T00:15:14;9.27;;;6.05;;
23496;SDS011;11925;48.122;11.560;2024-03-07T00:17:45;9.85;;;6.03;;
23496;SDS011;11925;48.122;11.560;2024-03-07T00:20:15;9.48;;;6.25;;
23496;SDS011;11925;48.122;11.560;2024-03-07T00:25:15;9.85;;;6.43;;
23496;SDS011;11925;48.122;11.560;2024-03-07T00:27:47;8.93;;;6.13;;
23496;SDS011;11925;48.122;11.560;2024-03-07T00:32:48;11.20;;;6.68;;
23496;SDS011;11925;48.122;11.560;2024-03-07T00:35:17;9.00;;;6.80;;
23496;SDS011;11925;48.122;11.560;2024-03-07T00:37:47;9.93;;;7.13;;
23496;SDS011;11925;48.122;11.560;2024-03-07T00:40:15;9.85;;;6.65;;
23496;SDS011;11925;48.122;11.560;2024-03-07T00:42:44;10.38;;;7.05;;
23496;SDS011;11925;48.122;11.560;2024-03-07T00:45:13;11.98;;;8.30;;
23496;SDS011;11925;48.122;11.560;2024-03-07T00:47:42;12.85;;;7.75;;
23496;SDS011;11925;48.122;11.560;2024-03-07T00:50:12;12.73;;;8.48;;
23496;SDS011;11925;48.122;11.560;2024-03-07T00:52:41;13.10;;;8.07;;
23496;SDS011;11925;48.122;11.560;2024-03-07T00:55:09;14.45;;;8.85;;
23496;SDS011;11925;48.122;11.560;2024-03-07T00:57:38;12.35;;;8.25;;
23496;SDS011;11925;48.122;11.560;2024-03-07T01:00:07;14.05;;;8.38;;
23496;SDS011;11925;48.122;11.560;2024-03-07T01:02:40;11.95;;;8.02;;
23496;SDS011;11925;48.122;11.560;2024-03-07T01:05:12;13.65;;;8.73;;
23496;SDS011;11925;48.122;11.560;2024-03-07T01:07:41;12.88;;;8.48;;
23496;SDS011;11925;48.122;11.560;2024-03-07T01:10:12;12.50;;;7.75;;
23496;SDS011;11925;48.122;11.560;2024-03-07T01:12:41;11.18;;;7.80;;
23496;SDS011;11925;48.122;11.560;2024-03-07T01:15:11;11.95;;;7.40;;
23496;SDS011;11925;48.122;11.560;2024-03-07T01:17:41;11.25;;;7.90;;
23496;SDS011;11925;48.122;11.560;2024-03-07T01:20:13;12.85;;;8.27;;
23496;SDS011;11925;48.122;11.560;2024-03-07T01:22:41;13.05;;;8.27;;
23496;SDS011;11925;48.122;11.560;2024-03-07T01:25:10;12.32;;;7.90;;
23496;SDS011;11925;48.122;11.560;2024-03-07T01:27:39;11.98;;;7.70;;
23496;SDS011;11925;48.122;11.560;2024-03-07T01:30:08;13.50;;;8.18;;
23496;SDS011;11925;48.122;11.560;2024-03-07T01:32:37;14.75;;;9.40;;
23496;SDS011;11925;48.122;11.560;2024-03-07T01:35:07;14.48;;;8.30;;
23496;SDS011;11925;48.122;11.560;2024-03-07T01:37:37;15.50;;;9.30;;
23496;SDS011;11925;48.122;11.560;2024-03-07T01:40:07;15.27;;;8.52;;
23496;SDS011;11925;48.122;11.560;2024-03-07T01:42:37;10.60;;;6.93;;
23496;SDS011;11925;48.122;11.560;2024-03-07T01:45:06;15.68;;;8.98;;
23496;SDS011;11925;48.122;11.560;2024-03-07T01:47:36;14.20;;;8.45;;
23496;SDS011;11925;48.122;11.560;2024-03-07T01:50:05;16.35;;;9.27;;
23496;SDS011;11925;48.122;11.560;2024-03-07T01:52:33;14.25;;;9.65;;
23496;SDS011;11925;48.122;11.560;2024-03-07T01:55:04;17.40;;;10.07;;
23496;SDS011;11925;48.122;11.560;2024-03-07T01:57:33;17.83;;;10.13;;
23496;SDS011;11925;48.122;11.560;2024-03-07T02:00:02;16.70;;;10.25;;
23496;SDS011;11925;48.122;11.560;2024-03-07T02:02:33;14.80;;;9.05;;
23496;SDS011;11925;48.122;11.560;2024-03-07T02:05:02;16.20;;;10.40;;
23496;SDS011;11925;48.122;11.560;2024-03-07T02:07:32;15.98;;;9.82;;
23496;SDS011;11925;48.122;11.560;2024-03-07T02:10:01;17.48;;;10.68;;
23496;SDS011;11925;48.122;11.560;2024-03-07T02:12:32;16.60;;;10.05;;
23496;SDS011;11925;48.122;11.560;2024-03-07T02:15:01;18.92;;;10.88;;
23496;SDS011;11925;48.122;11.560;2024-03-07T02:17:30;20.38;;;11.30;;
23496;SDS011;11925;48.122;11.560;2024-03-07T02:19:59;17.85;;;11.00;;
23496;SDS011;11925;48.122;11.560;2024-03-07T02:22:32;16.33;;;10.35;;
23496;SDS011;11925;48.122;11.560;2024-03-07T02:25:00;16.50;;;10.68;;
23496;SDS011;11925;48.122;11.560;2024-03-07T02:27:29;19.23;;;11.85;;
23496;SDS011;11925;48.122;11.560;2024-03-07T02:29:58;19.38;;;10.80;;
23496;SDS011;11925;48.122;11.560;2024-03-07T02:32:28;21.33;;;11.18;;
23496;SDS011;11925;48.122;11.560;2024-03-07T02:34:57;19.90;;;11.73;;
23496;SDS011;11925;48.122;11.560;2024-03-07T02:37:26;19.25;;;11.00;;
23496;SDS011;11925;48.122;11.560;2024-03-07T02:39:56;20.52;;;12.07;;
23496;SDS011;11925;48.122;11.560;2024-03-07T02:42:24;18.98;;;11.68;;
23496;SDS011;11925;48.122;11.560;2024-03-07T02:44:53;19.20;;;11.43;;
23496;SDS011;11925;48.122;11.560;2024-03-07T02:47:22;19.23;;;11.57;;
23496;SDS011;11925;48.122;11.560;2024-03-07T02:49:51;18.33;;;11.20;;
23496;SDS011;11925;48.122;11.560;2024-03-07T02:52:19;19.15;;;12.07;;
23496;SDS011;11925;48.122;11.560;2024-03-07T02:54:48;18.90;;;11.73;;
23496;SDS011;11925;48.122;11.560;2024-03-07T02:57:18;20.02;;;12.02;;
23496;SDS011;11925;48.122;11.560;2024-03-07T02:59:47;21.75;;;13.32;;
23496;SDS011;11925;48.122;11.560;2024-03-07T03:02:15;20.83;;;12.60;;
23496;SDS011;11925;48.122;11.560;2024-03-07T03:04:44;23.75;;;13.65;;
23496;SDS011;11925;48.122;11.560;2024-03-07T03:07:13;22.95;;;12.95;;
23496;SDS011;11925;48.122;11.560;2024-03-07T03:09:43;23.50;;;13.90;;
23496;SDS011;11925;48.122;11.560;2024-03-07T03:12:12;23.52;;;14.45;;
23496;SDS011;11925;48.122;11.560;2024-03-07T03:14:43;22.85;;;14.20;;
23496;SDS011;11925;48.122;11.560;2024-03-07T03:17:11;26.00;;;14.88;;
23496;SDS011;11925;48.122;11.560;2024-03-07T03:19:40;24.58;;;14.90;;
23496;SDS011;11925;48.122;11.560;2024-03-07T03:22:09;22.23;;;13.98;;
23496;SDS011;11925;48.122;11.560;2024-03-07T03:24:38;24.98;;;14.80;;
23496;SDS011;11925;48.122;11.560;2024-03-07T03:27:07;23.73;;;14.88;;
23496;SDS011;11925;48.122;11.560;2024-03-07T03:29:38;24.50;;;14.52;;
23496;SDS011;11925;48.122;11.560;2024-03-07T03:32:08;25.65;;;15.23;;
23496;SDS011;11925;48.122;11.560;2024-03-07T03:34:37;26.42;;;15.05;;
23496;SDS011;11925;48.122;11.560;2024-03-07T03:37:09;24.88;;;15.13;;
23496;SDS011;11925;48.122;11.560;2024-03-07T03:39:38;27.42;;;15.60;;
23496;SDS011;11925;48.122;11.560;2024-03-07T03:42:08;26.17;;;16.03;;
23496;SDS011;11925;48.122;11.560;2024-03-07T03:44:37;25.20;;;15.65;;
23496;SDS011;11925;48.122;11.560;2024-03-07T03:47:06;24.75;;;15.35;;
23496;SDS011;11925;48.122;11.560;2024-03-07T03:49:36;28.52;;;15.98;;
23496;SDS011;11925;48.122;11.560;2024-03-07T03:52:05;27.85;;;15.98;;
23496;SDS011;11925;48.122;11.560;2024-03-07T03:54:33;25.48;;;16.02;;
23496;SDS011;11925;48.122;11.560;2024-03-07T03:57:02;26.55;;;15.65;;
23496;SDS011;11925;48.122;11.560;2024-03-07T03:59:32;28.38;;;16.48;;
23496;SDS011;11925;48.122;11.560;2024-03-07T04:02:00;28.42;;;16.33;;
23496;SDS011;11925;48.122;11.560;2024-03-07T04:04:31;26.27;;;16.05;;
23496;SDS011;11925;48.122;11.560;2024-03-07T04:07:01;26.42;;;15.95;;
23496;SDS011;11925;48.122;11.560;2024-03-07T04:09:30;28.67;;;16.13;;
23496;SDS011;11925;48.122;11.560;2024-03-07T04:11:58;26.67;;;15.23;;
23496;SDS011;11925;48.122;11.560;2024-03-07T04:14:27;25.75;;;16.02;;
23496;SDS011;11925;48.122;11.560;2024-03-07T04:16:59;24.83;;;16.08;;
23496;SDS011;11925;48.122;11.560;2024-03-07T04:19:28;24.27;;;15.75;;
23496;SDS011;11925;48.122;11.560;2024-03-07T04:21:57;25.60;;;16.33;;
23496;SDS011;11925;48.122;11.560;2024-03-07T04:24:27;28.45;;;17.40;;
23496;SDS011;11925;48.122;11.560;2024-03-07T04:26:56;31.85;;;17.23;;
23496;SDS011;11925;48.122;11.560;2024-03-07T04:29:25;27.27;;;16.88;;
23496;SDS011;11925;48.122;11.560;2024-03-07T04:31:53;27.08;;;16.48;;
23496;SDS011;11925;48.122;11.560;2024-03-07T04:34:22;27.45;;;16.50;;
23496;SDS011;11925;48.122;11.560;2024-03-07T04:36:51;27.13;;;16.80;;
23496;SDS011;11925;48.122;11.560;2024-03-07T04:39:20;28.00;;;17.75;;
23496;SDS011;11925;48.122;11.560;2024-03-07T04:41:58;29.15;;;16.85;;
23496;SDS011;11925;48.122;11.560;2024-03-07T04:44:28;31.73;;;18.13;;
23496;SDS011;11925;48.122;11.560;2024-03-07T04:46:57;30.88;;;18.05;;
23496;SDS011;11925;48.122;11.560;2024-03-07T04:49:27;32.88;;;19.00;;
23496;SDS011;11925;48.122;11.560;2024-03-07T04:51:56;33.15;;;18.00;;
23496;SDS011;11925;48.122;11.560;2024-03-07T04:54:25;32.65;;;19.10;;
23496;SDS011;11925;48.122;11.560;2024-03-07T04:56:54;30.65;;;18.48;;
23496;SDS011;11925;48.122;11.560;2024-03-07T04:59:25;31.10;;;18.25;;
23496;SDS011;11925;48.122;11.560;2024-03-07T05:01:53;34.35;;;19.85;;
23496;SDS011;11925;48.122;11.560;2024-03-07T05:04:22;35.88;;;19.55;;
23496;SDS011;11925;48.122;11.560;2024-03-07T05:06:56;32.42;;;19.13;;
23496;SDS011;11925;48.122;11.560;2024-03-07T05:09:25;32.35;;;19.60;;
23496;SDS011;11925;48.122;11.560;2024-03-07T05:11:55;35.80;;;19.83;;
23496;SDS011;11925;48.122;11.560;2024-03-07T05:14:26;32.20;;;19.60;;
23496;SDS011;11925;48.122;11.560;2024-03-07T05:16:55;34.97;;;20.48;;
23496;SDS011;11925;48.122;11.560;2024-03-07T05:19:32;37.63;;;22.15;;
23496;SDS011;11925;48.122;11.560;2024-03-07T05:22:01;34.90;;;19.83;;
23496;SDS011;11925;48.122;11.560;2024-03-07T05:24:31;36.15;;;20.52;;
23496;SDS011;11925;48.122;11.560;2024-03-07T05:27:01;35.90;;;20.45;;
23496;SDS011;11925;48.122;11.560;2024-03-07T05:29:31;34.97;;;19.60;;
23496;SDS011;11925;48.122;11.560;2024-03-07T05:34:46;31.48;;;18.42;;
23496;SDS011;11925;48.122;11.560;2024-03-07T05:37:15;33.38;;;19.38;;
23496;SDS011;11925;48.122;11.560;2024-03-07T05:39:44;36.00;;;20.30;;
23496;SDS011;11925;48.122;11.560;2024-03-07T05:42:12;35.45;;;20.02;;
23496;SDS011;11925;48.122;11.560;2024-03-07T05:44:42;35.78;;;20.33;;
23496;SDS011;11925;48.122;11.560;2024-03-07T05:47:11;35.17;;;19.85;;
23496;SDS011;11925;48.122;11.560;2024-03-07T05:49:40;34.53;;;20.35;;
23496;SDS011;11925;48.122;11.560;2024-03-07T05:52:09;35.35;;;19.40;;
23496;SDS011;11925;48.122;11.560;2024-03-07T05:54:38;38.10;;;20.73;;
23496;SDS011;11925;48.122;11.560;2024-03-07T05:57:07;32.40;;;19.63;;
23496;SDS011;11925;48.122;11.560;2024-03-07T05:59:36;34.70;;;19.73;;
23496;SDS011;11925;48.122;11.560;2024-03-07T06:02:07;36.10;;;20.33;;
23496;SDS011;11925;48.122;11.560;2024-03-07T06:04:35;35.17;;;20.70;;
23496;SDS011;11925;48.122;11.560;2024-03-07T06:07:04;34.80;;;21.08;;
23496;SDS011;11925;48.122;11.560;2024-03-07T06:09:33;37.22;;;21.88;;
23496;SDS011;11925;48.122;11.560;2024-03-07T06:12:02;32.25;;;20.52;;
23496;SDS011;11925;48.122;11.560;2024-03-07T06:14:48;36.28;;;19.80;;
23496;SDS011;11925;48.122;11.560;2024-03-07T06:17:18;40.00;;;20.77;;
23496;SDS011;11925;48.122;11.560;2024-03-07T06:19:49;36.20;;;21.20;;
23496;SDS011;11925;48.122;11.560;2024-03-07T06:22:18;32.13;;;20.60;;
23496;SDS011;11925;48.122;11.560;2024-03-07T06:24:47;36.95;;;20.17;;
23496;SDS011;11925;48.122;11.560;2024-03-07T06:27:16;36.90;;;21.45;;
23496;SDS011;11925;48.122;11.560;2024-03-07T06:29:54;35.17;;;20.88;;
23496;SDS011;11925;48.122;11.560;2024-03-07T06:32:24;34.95;;;19.40;;
23496;SDS011;11925;48.122;11.560;2024-03-07T06:34:53;35.40;;;20.70;;
23496;SDS011;11925;48.122;11.560;2024-03-07T06:37:22;34.42;;;19.45;;
23496;SDS011;11925;48.122;11.560;2024-03-07T06:39:51;35.55;;;20.77;;
23496;SDS011;11925;48.122;11.560;2024-03-07T06:42:19;33.47;;;20.33;;
23496;SDS011;11925;48.122;11.560;2024-03-07T06:44:48;35.17;;;20.40;;
23496;SDS011;11925;48.122;11.560;2024-03-07T06:47:17;37.47;;;21.70;;
23496;SDS011;11925;48.122;11.560;2024-03-07T06:49:47;40.22;;;22.35;;
23496;SDS011;11925;48.122;11.560;2024-03-07T06:52:16;34.90;;;21.00;;
23496;SDS011;11925;48.122;11.560;2024-03-07T06:54:44;36.22;;;21.00;;
23496;SDS011;11925;48.122;11.560;2024-03-07T06:57:13;38.03;;;21.55;;
23496;SDS011;11925;48.122;11.560;2024-03-07T06:59:46;34.60;;;22.10;;
23496;SDS011;11925;48.122;11.560;2024-03-07T07:02:14;39.47;;;21.95;;
23496;SDS011;11925;48.122;11.560;2024-03-07T07:04:43;38.28;;;21.80;;
23496;SDS011;11925;48.122;11.560;2024-03-07T07:07:15;39.10;;;21.88;;
23496;SDS011;11925;48.122;11.560;2024-03-07T07:09:44;36.92;;;22.38;;
23496;SDS011;11925;48.122;11.560;2024-03-07T07:12:16;37.78;;;20.90;;
23496;SDS011;11925;48.122;11.560;2024-03-07T07:14:46;35.83;;;21.15;;
23496;SDS011;11925;48.122;11.560;2024-03-07T07:17:15;38.60;;;21.52;;
23496;SDS011;11925;48.122;11.560;2024-03-07T07:19:43;37.55;;;21.90;;
23496;SDS011;11925;48.122;11.560;2024-03-07T07:22:12;37.35;;;21.63;;
23496;SDS011;11925;48.122;11.560;2024-03-07T07:24:42;36.88;;;21.02;;
23496;SDS011;11925;48.122;11.560;2024-03-07T07:27:11;38.35;;;21.25;;
23496;SDS011;11925;48.122;11.560;2024-03-07T07:29:40;39.20;;;21.05;;
23496;SDS011;11925;48.122;11.560;2024-03-07T07:32:08;38.67;;;22.67;;
23496;SDS011;11925;48.122;11.560;2024-03-07T07:34:39;36.58;;;21.40;;
23496;SDS011;11925;48.122;11.560;2024-03-07T07:37:09;38.50;;;22.45;;
23496;SDS011;11925;48.122;11.560;2024-03-07T07:39:37;37.95;;;21.48;;
23496;SDS011;11925;48.122;11.560;2024-03-07T07:42:08;37.60;;;22.25;;
23496;SDS011;11925;48.122;11.560;2024-03-07T07:44:38;36.15;;;21.25;;
23496;SDS011;11925;48.122;11.560;2024-03-07T07:47:06;37.65;;;22.10;;
23496;SDS011;11925;48.122;11.560;2024-03-07T07:49:35;32.58;;;20.05;;
23496;SDS011;11925;48.122;11.560;2024-03-07T07:52:05;38.45;;;21.65;;
23496;SDS011;11925;48.122;11.560;2024-03-07T07:54:35;40.38;;;22.65;;
23496;SDS011;11925;48.122;11.560;2024-03-07T07:57:04;37.13;;;21.98;;
23496;SDS011;11925;48.122;11.560;2024-03-07T07:59:34;37.42;;;21.48;;
23496;SDS011;11925;48.122;11.560;2024-03-07T08:02:03;38.47;;;22.08;;
23496;SDS011;11925;48.122;11.560;2024-03-07T08:04:32;38.40;;;21.38;;
23496;SDS011;11925;48.122;11.560;2024-03-07T08:07:01;36.85;;;21.10;;
23496;SDS011;11925;48.122;11.560;2024-03-07T08:09:31;38.13;;;22.05;;
23496;SDS011;11925;48.122;11.560;2024-03-07T08:12:00;39.75;;;21.63;;
23496;SDS011;11925;48.122;11.560;2024-03-07T08:14:29;36.97;;;22.27;;
23496;SDS011;11925;48.122;11.560;2024-03-07T08:17:00;34.63;;;20.58;;
23496;SDS011;11925;48.122;11.560;2024-03-07T08:19:28;37.97;;;21.15;;
23496;SDS011;11925;48.122;11.560;2024-03-07T08:21:57;39.58;;;21.23;;
23496;SDS011;11925;48.122;11.560;2024-03-07T08:24:26;41.55;;;22.80;;
23496;SDS011;11925;48.122;11.560;2024-03-07T08:26:55;39.05;;;20.75;;
23496;SDS011;11925;48.122;11.560;2024-03-07T08:29:24;35.67;;;21.60;;
23496;SDS011;11925;48.122;11.560;2024-03-07T08:31:54;34.92;;;21.13;;
23496;SDS011;11925;48.122;11.560;2024-03-07T08:34:24;35.85;;;20.92;;
23496;SDS011;11925;48.122;11.560;2024-03-07T08:36:53;40.05;;;21.88;;
23496;SDS011;11925;48.122;11.560;2024-03-07T08:39:22;34.33;;;20.23;;
23496;SDS011;11925;48.122;11.560;2024-03-07T08:41:51;37.20;;;22.38;;
23496;SDS011;11925;48.122;11.560;2024-03-07T08:44:19;34.80;;;20.92;;
23496;SDS011;11925;48.122;11.560;2024-03-07T08:46:48;37.08;;;22.02;;
23496;SDS011;11925;48.122;11.560;2024-03-07T08:49:17;41.85;;;22.50;;
23496;SDS011;11925;48.122;11.560;2024-03-07T08:51:47;36.28;;;21.05;;
23496;SDS011;11925;48.122;11.560;2024-03-07T08:54:16;38.13;;;22.33;;
23496;SDS011;11925;48.122;11.560;2024-03-07T08:56:46;35.90;;;21.08;;
23496;SDS011;11925;48.122;11.560;2024-03-07T08:59:15;37.28;;;22.52;;
23496;SDS011;11925;48.122;11.560;2024-03-07T09:01:44;38.95;;;22.73;;
23496;SDS011;11925;48.122;11.560;2024-03-07T09:04:13;40.63;;;22.17;;
23496;SDS011;11925;48.122;11.560;2024-03-07T09:06:44;40.25;;;21.85;;
23496;SDS011;11925;48.122;11.560;2024-03-07T09:09:14;35.50;;;20.58;;
23496;SDS011;11925;48.122;11.560;2024-03-07T09:11:47;36.45;;;20.92;;
23496;SDS011;11925;48.122;11.560;2024-03-07T09:14:15;37.10;;;21.23;;
23496;SDS011;11925;48.122;11.560;2024-03-07T09:16:44;41.45;;;22.63;;
23496;SDS011;11925;48.122;11.560;2024-03-07T09:19:15;35.28;;;20.42;;
23496;SDS011;11925;48.122;11.560;2024-03-07T09:21:47;37.08;;;20.45;;
23496;SDS011;11925;48.122;11.560;2024-03-07T09:24:18;38.22;;;21.98;;
23496;SDS011;11925;48.122;11.560;2024-03-07T09:26:49;38.10;;;21.75;;
23496;SDS011;11925;48.122;11.560;2024-03-07T09:29:19;36.28;;;21.80;;
23496;SDS011;11925;48.122;11.560;2024-03-07T09:31:49;37.80;;;20.42;;
23496;SDS011;11925;48.122;11.560;2024-03-07T09:34:18;36.70;;;21.20;;
23496;SDS011;11925;48.122;11.560;2024-03-07T09:36:48;35.40;;;19.92;;
23496;SDS011;11925;48.122;11.560;2024-03-07T09:39:18;37.65;;;21.10;;
23496;SDS011;11925;48.122;11.560;2024-03-07T09:41:47;36.95;;;21.50;;
23496;SDS011;11925;48.122;11.560;2024-03-07T09:44:15;37.45;;;21.17;;
23496;SDS011;11925;48.122;11.560;2024-03-07T09:46:49;38.50;;;19.98;;
23496;SDS011;11925;48.122;11.560;2024-03-07T09:49:18;32.88;;;19.40;;
23496;SDS011;11925;48.122;11.560;2024-03-07T09:51:48;34.45;;;20.42;;
23496;SDS011;11925;48.122;11.560;2024-03-07T09:54:22;35.30;;;20.05;;
23496;SDS011;11925;48.122;11.560;2024-03-07T09:56:51;32.72;;;18.98;;
23496;SDS011;11925;48.122;11.560;2024-03-07T09:59:21;36.42;;;19.95;;
23496;SDS011;11925;48.122;11.560;2024-03-07T10:01:54;37.03;;;21.25;;
23496;SDS011;11925;48.122;11.560;2024-03-07T10:04:35;35.30;;;20.02;;
23496;SDS011;11925;48.122;11.560;2024-03-07T10:07:07;36.45;;;19.95;;
23496;SDS011;11925;48.122;11.560;2024-03-07T10:09:40;33.70;;;20.63;;
23496;SDS011;11925;48.122;11.560;2024-03-07T10:12:09;34.13;;;19.15;;
23496;SDS011;11925;48.122;11.560;2024-03-07T10:14:45;32.22;;;19.10;;
23496;SDS011;11925;48.122;11.560;2024-03-07T10:17:17;33.78;;;19.38;;
23496;SDS011;11925;48.122;11.560;2024-03-07T10:19:46;34.33;;;20.58;;
23496;SDS011;11925;48.122;11.560;2024-03-07T10:22:17;32.67;;;19.90;;
23496;SDS011;11925;48.122;11.560;2024-03-07T10:24:51;34.25;;;20.27;;
23496;SDS011;11925;48.122;11.560;2024-03-07T10:27:23;34.28;;;19.77;;
23496;SDS011;11925;48.122;11.560;2024-03-07T10:29:52;32.10;;;18.25;;
23496;SDS011;11925;48.122;11.560;2024-03-07T10:32:21;35.40;;;18.88;;
23496;SDS011;11925;48.122;11.560;2024-03-07T10:34:52;34.10;;;19.33;;
23496;SDS011;11925;48.122;11.560;2024-03-07T10:37:21;32.70;;;18.10;;
23496;SDS011;11925;48.122;11.560;2024-03-07T10:39:53;34.35;;;19.83;;
23496;SDS011;11925;48.122;11.560;2024-03-07T10:42:23;31.00;;;18.63;;
23496;SDS011;11925;48.122;11.560;2024-03-07T10:44:59;34.75;;;19.05;;
23496;SDS011;11925;48.122;11.560;2024-03-07T10:47:30;29.33;;;18.35;;
23496;SDS011;11925;48.122;11.560;2024-03-07T10:50:13;35.63;;;19.40;;
23496;SDS011;11925;48.122;11.560;2024-03-07T10:52:48;35.38;;;19.80;;
23496;SDS011;11925;48.122;11.560;2024-03-07T10:55:22;33.83;;;19.70;;
23496;SDS011;11925;48.122;11.560;2024-03-07T10:57:56;30.92;;;18.52;;
23496;SDS011;11925;48.122;11.560;2024-03-07T11:00:28;29.80;;;18.75;;
23496;SDS011;11925;48.122;11.560;2024-03-07T11:03:03;33.22;;;18.80;;
23496;SDS011;11925;48.122;11.560;2024-03-07T11:05:34;30.70;;;18.53;;
23496;SDS011;11925;48.122;11.560;2024-03-07T11:08:03;30.27;;;17.50;;
23496;SDS011;11925;48.122;11.560;2024-03-07T11:10:40;31.70;;;17.92;;
23496;SDS011;11925;48.122;11.560;2024-03-07T11:13:10;32.47;;;18.60;;
23496;SDS011;11925;48.122;11.560;2024-03-07T11:15:40;31.27;;;19.08;;
23496;SDS011;11925;48.122;11.560;2024-03-07T11:18:10;33.63;;;20.33;;
23496;SDS011;11925;48.122;11.560;2024-03-07T11:20:40;32.00;;;18.75;;
23496;SDS011;11925;48.122;11.560;2024-03-07T11:23:25;33.38;;;17.17;;
23496;SDS011;11925;48.122;11.560;2024-03-07T11:26:02;32.03;;;18.13;;
23496;SDS011;11925;48.122;11.560;2024-03-07T11:28:35;31.48;;;17.75;;
23496;SDS011;11925;48.122;11.560;2024-03-07T11:31:08;29.27;;;16.65;;
23496;SDS011;11925;48.122;11.560;2024-03-07T11:33:36;27.88;;;16.83;;
23496;SDS011;11925;48.122;11.560;2024-03-07T11:36:08;32.78;;;17.30;;
23496;SDS011;11925;48.122;11.560;2024-03-07T11:38:44;30.13;;;16.70;;
23496;SDS011;11925;48.122;11.560;2024-03-07T11:41:18;30.67;;;17.20;;
23496;SDS011;11925;48.122;11.560;2024-03-07T11:43:47;28.63;;;16.63;;
23496;SDS011;11925;48.122;11.560;2024-03-07T11:46:16;28.05;;;16.42;;
23496;SDS011;11925;48.122;11.560;2024-03-07T11:48:47;28.95;;;17.02;;
23496;SDS011;11925;48.122;11.560;2024-03-07T11:51:17;28.55;;;16.15;;
23496;SDS011;11925;48.122;11.560;2024-03-07T11:53:52;29.08;;;16.30;;
23496;SDS011;11925;48.122;11.560;2024-03-07T11:56:25;28.73;;;17.40;;
23496;SDS011;11925;48.122;11.560;2024-03-07T11:58:54;27.23;;;15.85;;
23496;SDS011;11925;48.122;11.560;2024-03-07T12:01:26;27.77;;;16.33;;
23496;SDS011;11925;48.122;11.560;2024-03-07T12:06:26;32.97;;;16.63;;
23496;SDS011;11925;48.122;11.560;2024-03-07T12:08:56;28.20;;;16.65;;
23496;SDS011;11925;48.122;11.560;2024-03-07T12:11:27;31.27;;;16.13;;
23496;SDS011;11925;48.122;11.560;2024-03-07T12:13:57;28.90;;;16.25;;
23496;SDS011;11925;48.122;11.560;2024-03-07T12:16:26;30.90;;;17.42;;
23496;SDS011;11925;48.122;11.560;2024-03-07T12:18:56;27.98;;;15.15;;
23496;SDS011;11925;48.122;11.560;2024-03-07T12:21:25;28.65;;;16.52;;
23496;SDS011;11925;48.122;11.560;2024-03-07T12:23:54;29.00;;;16.50;;
23496;SDS011;11925;48.122;11.560;2024-03-07T12:26:23;29.02;;;16.10;;
23496;SDS011;11925;48.122;11.560;2024-03-07T12:28:56;26.90;;;14.90;;
23496;SDS011;11925;48.122;11.560;2024-03-07T12:31:38;27.05;;;15.55;;
23496;SDS011;11925;48.122;11.560;2024-03-07T12:34:07;28.50;;;15.85;;
23496;SDS011;11925;48.122;11.560;2024-03-07T12:36:37;27.92;;;16.15;;
23496;SDS011;11925;48.122;11.560;2024-03-07T12:39:21;31.08;;;17.27;;
23496;SDS011;11925;48.122;11.560;2024-03-07T12:41:52;30.63;;;16.85;;
23496;SDS011;11925;48.122;11.560;2024-03-07T12:44:23;27.15;;;16.25;;
23496;SDS011;11925;48.122;11.560;2024-03-07T12:46:52;28.27;;;16.10;;
23496;SDS011;11925;48.122;11.560;2024-03-07T12:49:22;30.52;;;16.65;;
23496;SDS011;11925;48.122;11.560;2024-03-07T12:51:54;29.67;;;15.40;;
23496;SDS011;11925;48.122;11.560;2024-03-07T12:54:23;29.85;;;16.20;;
23496;SDS011;11925;48.122;11.560;2024-03-07T12:56:53;27.33;;;16.08;;
23496;SDS011;11925;48.122;11.560;2024-03-07T12:59:24;27.80;;;16.20;;
23496;SDS011;11925;48.122;11.560;2024-03-07T13:01:53;31.65;;;16.45;;
23496;SDS011;11925;48.122;11.560;2024-03-07T13:04:23;30.37;;;16.90;;
23496;SDS011;11925;48.122;11.560;2024-03-07T13:06:53;29.27;;;17.63;;
23496;SDS011;11925;48.122;11.560;2024-03-07T13:09:26;31.80;;;17.35;;
23496;SDS011;11925;48.122;11.560;2024-03-07T13:11:55;27.90;;;15.27;;
23496;SDS011;11925;48.122;11.560;2024-03-07T13:14:25;29.15;;;16.50;;
23496;SDS011;11925;48.122;11.560;2024-03-07T13:16:57;26.65;;;14.27;;
23496;SDS011;11925;48.122;11.560;2024-03-07T13:19:27;27.73;;;16.05;;
23496;SDS011;11925;48.122;11.560;2024-03-07T13:21:56;30.10;;;15.25;;
23496;SDS011;11925;48.122;11.560;2024-03-07T13:24:25;25.48;;;14.75;;
23496;SDS011;11925;48.122;11.560;2024-03-07T13:26:54;29.52;;;16.35;;
23496;SDS011;11925;48.122;11.560;2024-03-07T13:29:24;31.70;;;16.30;;
23496;SDS011;11925;48.122;11.560;2024-03-07T13:31:55;26.92;;;15.68;;
23496;SDS011;11925;48.122;11.560;2024-03-07T13:34:23;28.58;;;16.00;;
23496;SDS011;11925;48.122;11.560;2024-03-07T13:36:52;28.20;;;15.77;;
23496;SDS011;11925;48.122;11.560;2024-03-07T13:39:24;28.10;;;15.63;;
23496;SDS011;11925;48.122;11.560;2024-03-07T13:41:53;27.33;;;15.27;;
23496;SDS011;11925;48.122;11.560;2024-03-07T13:44:22;28.25;;;15.27;;
23496;SDS011;11925;48.122;11.560;2024-03-07T13:46:54;32.10;;;15.52;;
23496;SDS011;11925;48.122;11.560;2024-03-07T13:49:26;28.83;;;15.60;;
23496;SDS011;11925;48.122;11.560;2024-03-07T13:51:55;29.17;;;16.90;;
23496;SDS011;11925;48.122;11.560;2024-03-07T13:54:41;26.83;;;16.02;;
23496;SDS011;11925;48.122;11.560;2024-03-07T13:57:15;28.67;;;15.27;;
23496;SDS011;11925;48.122;11.560;2024-03-07T13:59:58;26.52;;;15.70;;
23496;SDS011;11925;48.122;11.560;2024-03-07T14:02:51;28.02;;;15.73;;
23496;SDS011;11925;48.122;11.560;2024-03-07T14:11:28;26.85;;;15.43;;
23496;SDS011;11925;48.122;11.560;2024-03-07T14:14:08;27.15;;;15.60;;
23496;SDS011;11925;48.122;11.560;2024-03-07T14:16:43;26.50;;;15.45;;
23496;SDS011;11925;48.122;11.560;2024-03-07T14:19:31;25.55;;;14.50;;
23496;SDS011;11925;48.122;11.560;2024-03-07T14:22:18;26.88;;;14.13;;
23496;SDS011;11925;48.122;11.560;2024-03-07T14:25:05;24.10;;;14.13;;
23496;SDS011;11925;48.122;11.560;2024-03-07T14:27:50;21.98;;;14.13;;
23496;SDS011;11925;48.122;11.560;2024-03-07T14:30:23;24.83;;;14.35;;
23496;SDS011;11925;48.122;11.560;2024-03-07T14:35:25;26.90;;;14.68;;
23496;SDS011;11925;48.122;11.560;2024-03-07T14:38:02;24.52;;;14.55;;
23496;SDS011;11925;48.122;11.560;2024-03-07T14:40:32;26.05;;;15.20;;
23496;SDS011;11925;48.122;11.560;2024-03-07T14:43:01;29.75;;;16.63;;
23496;SDS011;11925;48.122;11.560;2024-03-07T14:45:35;28.63;;;15.77;;
23496;SDS011;11925;48.122;11.560;2024-03-07T14:48:05;28.13;;;15.98;;